Terminal Aerodrome Forecast
Issued by NWS Tuscon, AZ

Home | Current Version | Previous Version | Text Only | Print | Product List | Glossary On
Versions: 1 2 3 4 5 6 7 8 9 10 11 12 13 14 15 16 17 18 19
620
FTUS45 KTWC 242322
TAFTUS
TAF
KTUS 242322Z 2500/2524 34007KT P6SM VCSH SCT060 BKN120
      TEMPO 2500/2502 34012G20KT 4SM RA SCT030 BKN050
     FM250300 19006KT P6SM SCT060 BKN120
     FM250500 15006KT P6SM FEW070 BKN150
     FM251900 22007KT P6SM FEW060 SCT150=

USA.gov is the U.S. government's official web portal to all federal, state and local government web resources and services.